createdAt,value
2018-01-21T19:50:48.009Z,30.67
2018-01-21T19:53:16.433Z,31.30
2018-01-21T19:55:44.827Z,25.03
2018-01-21T19:58:13.313Z,19.10
2018-01-21T20:00:41.714Z,16.90
2018-01-21T20:03:10.118Z,42.07
2018-01-21T20:05:38.576Z,24.87
2018-01-21T20:08:07.006Z,22.50
2018-01-21T20:10:35.425Z,27.50
2018-01-21T20:13:07.836Z,18.27
2018-01-21T20:15:36.237Z,18.67
2018-01-21T20:18:04.674Z,16.80
2018-01-21T20:20:33.106Z,19.17
2018-01-21T20:23:01.513Z,18.37
2018-01-21T20:25:29.945Z,21.00
2018-01-21T20:27:58.405Z,19.03
2018-01-21T20:30:26.814Z,17.90
2018-01-21T20:32:55.223Z,17.20
2018-01-21T20:35:23.660Z,17.27
2018-01-21T20:37:52.045Z,16.93
2018-01-21T20:40:20.434Z,19.20
2018-01-21T20:42:48.910Z,17.40
2018-01-21T20:45:17.334Z,27.07
2018-01-21T20:47:45.725Z,17.17
2018-01-21T20:50:14.158Z,17.77
2018-01-21T20:52:46.533Z,17.10
2018-01-21T20:55:14.966Z,18.47
2018-01-21T20:57:43.382Z,17.67
2018-01-21T21:00:11.782Z,19.97
2018-01-21T21:02:40.235Z,17.67
2018-01-21T21:05:08.650Z,17.87
2018-01-21T21:07:37.381Z,16.87
2018-01-21T21:10:05.835Z,16.47
2018-01-21T21:12:34.259Z,17.77
2018-01-21T21:15:02.654Z,19.30
2018-01-21T21:17:31.119Z,17.23
2018-01-21T21:19:59.545Z,18.20
2018-01-21T21:22:27.930Z,17.70
2018-01-21T21:24:56.404Z,17.03
2018-01-21T21:27:24.815Z,17.30
2018-01-21T21:29:53.234Z,16.60
2018-01-21T21:32:21.676Z,16.23
2018-01-21T21:34:50.109Z,18.80
2018-01-21T21:37:18.733Z,15.97
2018-01-21T21:39:47.198Z,14.97
2018-01-21T21:42:15.614Z,16.50
2018-01-21T21:44:44.001Z,16.27
2018-01-21T21:47:12.487Z,16.00
2018-01-21T21:49:40.932Z,14.37
2018-01-21T21:52:09.325Z,15.13
2018-01-21T21:54:37.806Z,15.80
2018-01-21T21:57:06.210Z,15.13
2018-01-21T21:59:34.633Z,15.60
2018-01-21T22:02:03.071Z,15.30
2018-01-21T22:04:31.508Z,13.83
2018-01-21T22:06:59.897Z,14.53
2018-01-21T22:09:28.461Z,15.20
2018-01-21T22:11:56.873Z,14.60
2018-01-21T22:14:25.269Z,14.00
2018-01-21T22:16:53.753Z,14.53
2018-01-21T22:19:22.167Z,13.57
2018-01-21T22:21:50.578Z,12.90
2018-01-21T22:24:19.029Z,13.73
2018-01-21T22:26:47.432Z,13.40
2018-01-21T22:29:15.843Z,12.83
2018-01-21T22:31:44.270Z,11.50
2018-01-21T22:34:12.657Z,12.67
2018-01-21T22:36:41.050Z,12.50
2018-01-21T22:39:09.570Z,12.60
2018-01-21T22:41:37.990Z,12.60
2018-01-21T22:44:06.405Z,11.20
2018-01-21T22:46:34.886Z,11.60
2018-01-21T22:49:03.293Z,12.17
2018-01-21T22:51:31.722Z,11.87
2018-01-21T22:54:00.415Z,11.87
2018-01-21T22:56:28.853Z,11.20
2018-01-21T22:58:57.285Z,11.57
2018-01-21T23:01:25.750Z,12.23
2018-01-21T23:03:54.142Z,12.27
2018-01-21T23:06:22.568Z,12.57
2018-01-21T23:08:51.026Z,11.70
2018-01-21T23:11:19.417Z,11.57
2018-01-21T23:13:47.837Z,11.83
2018-01-21T23:16:16.318Z,11.83
2018-01-21T23:18:44.726Z,12.37
2018-01-21T23:21:13.126Z,12.87
2018-01-21T23:23:41.581Z,12.20
2018-01-21T23:26:09.991Z,11.77
2018-01-21T23:28:38.391Z,11.47
2018-01-21T23:31:06.828Z,11.53
2018-01-21T23:33:35.259Z,12.37
2018-01-21T23:36:03.658Z,11.93
2018-01-21T23:38:32.230Z,13.07
2018-01-21T23:41:00.656Z,11.73
2018-01-21T23:43:29.093Z,11.63
2018-01-21T23:45:57.556Z,11.47
2018-01-21T23:48:25.978Z,11.97
2018-01-21T23:50:54.365Z,11.73
2018-01-21T23:53:22.833Z,11.83
2018-01-21T23:55:51.223Z,11.47
2018-01-21T23:58:19.632Z,11.33
